Archival Weather

Westchester County

White Plains, New York (KHPN)

Report from: Friday, February 23, 2024 11:56 PM EST
Current time: Wednesday, May 29, 2024 7:19 PM EDT

Current weather – Weather history – Daily summaries
Weather forecast

Temperature3.9°C (39.0°F)
Wind chill-0.3°C (31.4°F)
Dew point1.1°C (34.0°F)
Winds 11 kts (5.7 m/s, 12.7 mph) North-Northwest (330°)
Visibility10 mi. (16.1 km)
Clouds Few clouds 3,300 ft. (1,006 m)
Altimeter29.45 in.Hg (997 mB)
Relative humidity82 %
Density altitude-709 ft. (-216 m)
Sea-level pressure99.8 kPa (998 mB, 29.46 in.Hg)
Max temp last 24 hours7.8°C (46.0°F)
Min temp last 24 hours2.8°C (37.0°F)
Remarks Automated weather observing station with precipitation discriminator
Flight conditions Visual Meteorological Conditions
Raw dataKHPN 240456Z 33011KT 10SM FEW033 04/01 A2945 RMK AO2 SLP976 T00390011 400780028
An error has occurred. This application may no longer respond until reloaded. Reload 🗙